Plantation Key, Florida
Current Conditions -  °F | °C
As of 2:58 AM on Sunday 26 Oct 2014 (Local Time) from KHST Reporting Station
Clear Clear  
Wind Chill: 68°   Ceiling: Unl
Heat Index: 68°   Visibility: 10mi
Dew Point: 64°   Wind: 7mph
Humidity: 86%   Direction: 330°NNW
Pressure: 29.91"   Gusts: NA
Location:  25.0103°N, 80.5235°W
Report Text: KHST 260658Z AUTO 33006KT 10SM CLR 20/18 A2991 RMK AO2 SLP132 T02010177
Loading
Personal Weather Stations






























Interactive Weather Map
Tropical Storm Tracking
New forecast layout! Learn more

10-Day Weather Forecast

Advertisements
Track Severe Weather on mobile